createdAt,value
2023-03-31T00:00:22.628Z,9.20
2023-03-31T00:05:28.067Z,9.10
2023-03-31T00:10:33.687Z,9.00
2023-03-31T00:15:36.312Z,9.00
2023-03-31T00:20:38.708Z,8.90
2023-03-31T00:25:41.912Z,8.70
2023-03-31T00:30:44.355Z,8.70
2023-03-31T00:35:51.065Z,8.50
2023-03-31T00:40:54.009Z,8.40
2023-03-31T00:46:15.482Z,8.30
2023-03-31T00:51:20.209Z,8.20
2023-03-31T00:56:22.872Z,8.20
2023-03-31T01:01:26.684Z,8.00
2023-03-31T01:06:30.990Z,7.90
2023-03-31T01:11:35.149Z,7.80
2023-03-31T01:16:39.977Z,7.70
2023-03-31T01:22:05.977Z,7.60
2023-03-31T01:27:26.940Z,7.50
2023-03-31T01:32:47.853Z,7.50
2023-03-31T01:37:50.361Z,7.40
2023-03-31T01:43:08.308Z,7.30
2023-03-31T01:48:21.316Z,7.30
2023-03-31T01:53:32.151Z,7.30
2023-03-31T01:58:37.989Z,7.30
2023-03-31T02:03:53.774Z,7.30
2023-03-31T02:09:02.308Z,7.40
2023-03-31T02:14:09.696Z,7.50
2023-03-31T02:19:14.098Z,7.50
2023-03-31T02:24:19.429Z,7.60
2023-03-31T02:29:22.168Z,7.60
2023-03-31T02:34:25.175Z,7.70
2023-03-31T02:39:33.401Z,7.70
2023-03-31T02:44:37.844Z,7.80
2023-03-31T02:49:43.610Z,8.00
2023-03-31T02:55:04.428Z,8.10
2023-03-31T03:00:44.537Z,8.10
2023-03-31T03:06:24.433Z,8.10
2023-03-31T03:11:59.659Z,8.20
2023-03-31T03:17:09.706Z,8.20
2023-03-31T03:22:12.100Z,8.30
2023-03-31T03:27:14.557Z,8.30
2023-03-31T03:32:17.127Z,8.50
2023-03-31T03:37:19.619Z,8.40
2023-03-31T03:42:22.042Z,8.50
2023-03-31T03:47:24.483Z,8.50
2023-03-31T03:52:27.232Z,8.50
2023-03-31T03:57:29.697Z,8.50
2023-03-31T04:02:32.243Z,8.50
2023-03-31T04:07:34.622Z,8.50
2023-03-31T04:12:37.098Z,8.50
2023-03-31T04:17:39.658Z,8.50
2023-03-31T04:22:42.092Z,8.60
2023-03-31T04:27:55.322Z,8.90
2023-03-31T04:33:00.167Z,8.60
2023-03-31T04:38:02.714Z,8.60
2023-03-31T04:43:05.256Z,8.60
2023-03-31T04:48:08.323Z,8.70
2023-03-31T04:53:10.938Z,8.60
2023-03-31T04:58:13.372Z,8.60
2023-03-31T05:03:16.212Z,8.70
2023-03-31T05:08:18.633Z,8.70
2023-03-31T05:13:21.222Z,8.70
2023-03-31T05:18:23.669Z,8.80
2023-03-31T05:23:26.255Z,8.80
2023-03-31T05:28:29.901Z,8.90
2023-03-31T05:33:34.225Z,8.90
2023-03-31T05:38:36.703Z,9.00
2023-03-31T05:43:39.857Z,9.10
2023-03-31T05:48:42.395Z,9.50
2023-03-31T05:53:45.034Z,9.10
2023-03-31T05:58:47.682Z,9.20
2023-03-31T06:03:51.324Z,9.40
2023-03-31T06:08:54.060Z,9.30
2023-03-31T06:13:56.428Z,9.40
2023-03-31T06:18:59.127Z,9.70
2023-03-31T06:24:01.883Z,9.60
2023-03-31T06:29:04.329Z,9.70
2023-03-31T06:34:06.890Z,9.80
2023-03-31T06:39:09.406Z,9.80
2023-03-31T06:44:12.002Z,9.90
2023-03-31T06:49:14.454Z,10.10
2023-03-31T06:54:16.899Z,10.30
2023-03-31T06:59:19.353Z,10.50
2023-03-31T07:04:22.295Z,10.60
2023-03-31T07:09:24.795Z,10.70
2023-03-31T07:14:27.494Z,10.80
2023-03-31T07:19:30.099Z,10.80
2023-03-31T07:24:32.682Z,11.10
2023-03-31T07:29:38.664Z,11.10
2023-03-31T07:34:41.702Z,11.30
2023-03-31T07:39:44.137Z,11.60
2023-03-31T07:44:49.672Z,11.40
2023-03-31T07:49:52.120Z,11.60
2023-03-31T07:54:54.526Z,11.80
2023-03-31T07:59:56.930Z,12.00
2023-03-31T08:04:59.734Z,12.60
2023-03-31T08:10:05.441Z,12.20
2023-03-31T08:15:08.243Z,12.20
2023-03-31T08:20:11.547Z,12.20
2023-03-31T08:25:14.014Z,12.00
2023-03-31T08:30:17.298Z,12.20
2023-03-31T08:35:19.679Z,12.40
2023-03-31T08:40:28.784Z,12.80
2023-03-31T08:45:38.240Z,13.10
2023-03-31T08:50:53.879Z,13.00
2023-03-31T08:55:58.767Z,13.20
2023-03-31T09:01:07.188Z,13.40
2023-03-31T09:06:21.682Z,13.40
2023-03-31T09:11:38.312Z,13.80
2023-03-31T09:16:48.156Z,14.00
2023-03-31T09:21:54.371Z,14.00
2023-03-31T09:27:03.396Z,14.30
2023-03-31T09:32:19.517Z,14.10
2023-03-31T09:37:22.104Z,14.50
2023-03-31T09:42:24.558Z,14.70
2023-03-31T09:47:39.036Z,14.90
2023-03-31T09:52:49.452Z,15.00
2023-03-31T09:57:51.823Z,15.10
2023-03-31T10:02:55.820Z,15.30
2023-03-31T10:08:17.299Z,15.20
2023-03-31T10:13:26.681Z,15.10
2023-03-31T10:18:38.759Z,14.90
2023-03-31T10:23:47.705Z,14.70
2023-03-31T10:28:52.808Z,14.70
2023-03-31T10:33:56.151Z,14.90
2023-03-31T10:38:58.805Z,15.10
2023-03-31T10:44:04.222Z,15.60
2023-03-31T10:49:25.723Z,15.70
2023-03-31T10:54:28.085Z,15.90
2023-03-31T10:59:33.251Z,16.00
2023-03-31T11:04:45.580Z,15.50
2023-03-31T11:10:09.564Z,15.30
2023-03-31T11:15:27.553Z,15.90
2023-03-31T11:20:57.524Z,15.70
2023-03-31T11:26:13.272Z,15.70
2023-03-31T11:31:34.962Z,15.60
2023-03-31T11:36:46.358Z,15.30
2023-03-31T11:41:58.150Z,15.10
2023-03-31T11:47:08.599Z,15.00
2023-03-31T11:52:19.245Z,14.90
2023-03-31T11:57:40.682Z,15.10
2023-03-31T12:02:55.123Z,14.90
2023-03-31T12:08:03.484Z,14.80
2023-03-31T12:13:47.382Z,14.30
2023-03-31T12:19:08.841Z,14.00
2023-03-31T12:24:13.637Z,14.00
2023-03-31T12:29:36.325Z,14.20
2023-03-31T12:34:46.936Z,14.10
2023-03-31T12:40:13.960Z,14.10
2023-03-31T12:45:26.835Z,14.20
2023-03-31T12:51:01.786Z,14.30
2023-03-31T12:56:04.518Z,13.90
2023-03-31T13:01:20.098Z,14.00
2023-03-31T13:06:28.696Z,14.10
2023-03-31T13:11:34.416Z,14.50
2023-03-31T13:16:37.018Z,14.70
2023-03-31T13:21:59.354Z,14.90
2023-03-31T13:27:32.962Z,14.90
2023-03-31T13:32:37.184Z,14.80
2023-03-31T13:37:54.865Z,14.80
2023-03-31T13:43:27.775Z,15.20
2023-03-31T13:48:56.058Z,15.00
2023-03-31T13:54:04.160Z,15.10
2023-03-31T13:59:29.218Z,15.00
2023-03-31T14:04:58.925Z,14.60
2023-03-31T14:10:02.941Z,14.60
2023-03-31T14:15:07.375Z,14.50
2023-03-31T14:20:46.419Z,14.50
2023-03-31T14:26:07.299Z,14.00
2023-03-31T14:31:24.619Z,13.10
2023-03-31T14:36:39.459Z,12.50
2023-03-31T14:41:44.631Z,12.10
2023-03-31T14:46:47.630Z,12.10
2023-03-31T14:51:53.212Z,12.30
2023-03-31T14:56:58.991Z,12.10
2023-03-31T15:02:03.666Z,12.00
2023-03-31T15:07:06.631Z,12.00
2023-03-31T15:12:15.046Z,12.00
2023-03-31T15:17:28.008Z,12.00
2023-03-31T15:22:30.749Z,12.10
2023-03-31T15:27:42.116Z,12.10
2023-03-31T15:32:45.069Z,12.00
2023-03-31T15:37:48.285Z,12.00
2023-03-31T15:43:13.508Z,12.20
2023-03-31T15:48:38.325Z,12.20
2023-03-31T15:53:49.262Z,12.00
2023-03-31T15:59:00.811Z,11.90
2023-03-31T16:04:08.731Z,12.00
2023-03-31T16:09:24.295Z,11.70
2023-03-31T16:14:33.280Z,11.60
2023-03-31T16:19:53.619Z,11.50
2023-03-31T16:24:56.562Z,11.50
2023-03-31T16:30:14.749Z,11.50
2023-03-31T16:35:17.145Z,11.40
2023-03-31T16:40:19.482Z,11.40
2023-03-31T16:45:21.846Z,11.20
2023-03-31T16:50:24.272Z,11.00
2023-03-31T16:55:27.500Z,11.10
2023-03-31T17:00:31.759Z,11.00
2023-03-31T17:05:43.365Z,10.80
2023-03-31T17:11:14.397Z,10.80
2023-03-31T17:16:24.390Z,10.70
2023-03-31T17:21:31.722Z,10.70
2023-03-31T17:26:35.939Z,10.60
2023-03-31T17:31:38.365Z,10.50
2023-03-31T17:36:44.279Z,10.50
2023-03-31T17:41:46.674Z,10.50
2023-03-31T17:46:49.237Z,10.50
2023-03-31T17:51:53.012Z,10.40
2023-03-31T17:56:55.474Z,10.60
2023-03-31T18:01:58.200Z,10.40
2023-03-31T18:07:00.537Z,10.30
2023-03-31T18:12:02.931Z,10.40
2023-03-31T18:17:06.431Z,10.40
2023-03-31T18:22:09.399Z,10.50
2023-03-31T18:27:11.966Z,10.40
2023-03-31T18:32:14.688Z,10.30
2023-03-31T18:37:17.196Z,10.30
2023-03-31T18:42:25.010Z,10.30
2023-03-31T18:47:27.546Z,10.30
2023-03-31T18:52:29.882Z,10.50
2023-03-31T18:57:32.337Z,10.20
2023-03-31T19:02:34.931Z,10.30
2023-03-31T19:07:37.447Z,10.10
2023-03-31T19:12:39.845Z,10.20
2023-03-31T19:17:42.775Z,10.30
2023-03-31T19:22:46.957Z,10.30
2023-03-31T19:27:49.409Z,10.20
2023-03-31T19:32:52.136Z,10.20
2023-03-31T19:37:54.865Z,10.20
2023-03-31T19:42:57.230Z,10.20
2023-03-31T19:47:59.590Z,10.00
2023-03-31T19:53:02.150Z,10.00
2023-03-31T19:58:04.673Z,9.90
2023-03-31T20:03:07.996Z,9.90
2023-03-31T20:08:12.645Z,9.80
2023-03-31T20:13:15.093Z,9.90
2023-03-31T20:18:18.385Z,9.80
2023-03-31T20:23:21.009Z,9.80
2023-03-31T20:28:23.555Z,9.70
2023-03-31T20:33:26.320Z,9.70
2023-03-31T20:38:31.216Z,9.80
2023-03-31T20:43:34.561Z,9.60
2023-03-31T20:48:39.997Z,9.60
2023-03-31T20:53:44.193Z,9.60
2023-03-31T20:58:47.592Z,9.60
2023-03-31T21:03:50.249Z,9.60
2023-03-31T21:08:54.174Z,9.50
2023-03-31T21:13:56.579Z,9.60
2023-03-31T21:19:00.209Z,9.50
2023-03-31T21:24:02.680Z,9.50
2023-03-31T21:29:05.181Z,9.50
2023-03-31T21:34:07.810Z,9.40
2023-03-31T21:39:10.542Z,9.40
2023-03-31T21:44:13.403Z,9.60
2023-03-31T21:49:17.376Z,9.40
2023-03-31T21:54:20.459Z,9.60
2023-03-31T21:59:22.830Z,9.60
2023-03-31T22:04:25.279Z,9.40
2023-03-31T22:09:27.732Z,9.40
2023-03-31T22:14:30.069Z,9.40
2023-03-31T22:19:32.767Z,9.40
2023-03-31T22:24:35.954Z,9.40
2023-03-31T22:29:39.199Z,9.50
2023-03-31T22:34:42.007Z,9.30
2023-03-31T22:39:44.643Z,9.10
2023-03-31T22:44:46.966Z,9.30
2023-03-31T22:49:49.291Z,9.20
2023-03-31T22:54:51.741Z,9.20
2023-03-31T22:59:54.285Z,9.10
2023-03-31T23:04:56.691Z,9.30
2023-03-31T23:09:59.057Z,9.20
2023-03-31T23:15:02.329Z,9.60
2023-03-31T23:20:06.677Z,9.20
2023-03-31T23:25:09.262Z,9.30
2023-03-31T23:30:12.350Z,9.30
2023-03-31T23:35:15.045Z,9.30
2023-03-31T23:40:17.380Z,9.20
2023-03-31T23:45:19.735Z,9.20
2023-03-31T23:50:22.063Z,9.30
2023-03-31T23:55:24.519Z,9.20
